createdAt,value
2019-03-18T00:00:30.041Z,9.78
2019-03-18T00:02:56.705Z,12.28
2019-03-18T00:05:23.268Z,8.60
2019-03-18T00:07:49.834Z,11.08
2019-03-18T00:10:16.407Z,8.55
2019-03-18T00:12:42.996Z,7.58
2019-03-18T00:15:09.561Z,12.98
2019-03-18T00:17:36.143Z,13.13
2019-03-18T00:20:02.708Z,9.15
2019-03-18T00:22:29.306Z,12.60
2019-03-18T00:24:55.875Z,8.90
2019-03-18T00:27:22.456Z,16.12
2019-03-18T00:29:49.022Z,7.75
2019-03-18T00:32:15.616Z,9.55
2019-03-18T00:34:42.222Z,11.15
2019-03-18T00:37:08.826Z,12.13
2019-03-18T00:39:35.391Z,8.70
2019-03-18T00:42:02.022Z,9.68
2019-03-18T00:44:28.589Z,10.93
2019-03-18T00:46:55.183Z,14.23
2019-03-18T00:49:21.754Z,11.50
2019-03-18T00:51:48.342Z,10.03
2019-03-18T00:54:14.912Z,7.12
2019-03-18T00:56:41.607Z,8.78
2019-03-18T00:59:08.329Z,13.78
2019-03-18T01:01:34.945Z,17.15
2019-03-18T01:04:01.522Z,15.70
2019-03-18T01:06:28.135Z,13.95
2019-03-18T01:08:54.713Z,15.03
2019-03-18T01:11:21.331Z,12.03
2019-03-18T01:13:47.905Z,12.73
2019-03-18T01:16:14.495Z,9.73
2019-03-18T01:18:41.077Z,11.85
2019-03-18T01:21:07.681Z,9.83
2019-03-18T01:23:34.265Z,8.10
2019-03-18T01:26:00.838Z,6.35
2019-03-18T01:28:27.400Z,9.58
2019-03-18T01:30:53.981Z,7.28
2019-03-18T01:33:20.545Z,8.88
2019-03-18T01:35:47.123Z,5.83
2019-03-18T01:38:13.698Z,6.33
2019-03-18T01:40:40.260Z,5.20
2019-03-18T01:43:06.846Z,6.08
2019-03-18T01:45:40.521Z,3.95
2019-03-18T01:48:01.715Z,3.30
2019-03-18T01:50:28.296Z,4.12
2019-03-18T01:52:54.877Z,2.60
2019-03-18T01:55:21.450Z,2.50
2019-03-18T01:57:48.020Z,5.17
2019-03-18T02:00:14.607Z,15.63
2019-03-18T02:02:41.317Z,15.23
2019-03-18T02:05:07.898Z,17.48
2019-03-18T02:07:34.636Z,10.13
2019-03-18T02:10:01.213Z,11.70
2019-03-18T02:12:27.824Z,7.12
2019-03-18T02:14:54.395Z,11.68
2019-03-18T02:17:21.022Z,12.10
2019-03-18T02:19:47.599Z,12.10
2019-03-18T02:22:14.214Z,8.65
2019-03-18T02:24:40.790Z,9.03
2019-03-18T02:27:07.409Z,8.20
2019-03-18T02:29:33.977Z,12.58
2019-03-18T02:32:00.597Z,11.35
2019-03-18T02:34:27.167Z,7.83
2019-03-18T02:36:53.762Z,10.70
2019-03-18T02:39:20.337Z,7.83
2019-03-18T02:41:46.793Z,8.83
2019-03-18T02:44:13.398Z,4.75
2019-03-18T02:46:40.033Z,5.03
2019-03-18T02:49:06.689Z,3.35
2019-03-18T02:51:33.293Z,4.42
2019-03-18T02:53:59.861Z,1.62
2019-03-18T02:56:26.438Z,1.65
2019-03-18T02:58:53.013Z,2.42
2019-03-18T03:01:19.579Z,2.12
2019-03-18T03:03:46.145Z,1.10
2019-03-18T03:06:12.789Z,1.57
2019-03-18T03:08:39.423Z,2.98
2019-03-18T03:11:06.018Z,3.35
2019-03-18T03:13:32.581Z,5.60
2019-03-18T03:15:59.147Z,5.00
2019-03-18T03:18:25.729Z,4.00
2019-03-18T03:20:52.302Z,7.42
2019-03-18T03:23:18.876Z,4.28
2019-03-18T03:25:45.631Z,4.97
2019-03-18T03:28:12.207Z,6.95
2019-03-18T03:30:38.770Z,6.53
2019-03-18T03:33:05.367Z,5.28
2019-03-18T03:35:31.990Z,4.60
2019-03-18T03:37:58.565Z,7.05
2019-03-18T03:40:25.138Z,4.17
2019-03-18T03:42:51.895Z,3.87
2019-03-18T03:45:18.459Z,2.58
2019-03-18T03:47:45.032Z,4.33
2019-03-18T03:50:11.605Z,7.33
2019-03-18T03:52:38.270Z,6.12
2019-03-18T03:55:04.842Z,7.60
2019-03-18T03:57:31.463Z,6.80
2019-03-18T03:59:58.038Z,9.55
2019-03-18T04:02:24.635Z,7.05
2019-03-18T04:04:51.204Z,11.68
2019-03-18T04:07:17.796Z,8.50
2019-03-18T04:09:44.371Z,9.55
2019-03-18T04:12:11.066Z,8.53
2019-03-18T04:14:37.642Z,10.32
2019-03-18T04:17:04.240Z,10.48
2019-03-18T04:19:30.811Z,10.65
2019-03-18T04:21:57.396Z,14.28
2019-03-18T04:24:23.982Z,10.43
2019-03-18T04:26:50.620Z,10.20
2019-03-18T04:29:17.193Z,10.25
2019-03-18T04:31:43.772Z,8.18
2019-03-18T04:34:10.353Z,11.05
2019-03-18T04:36:37.031Z,8.88
2019-03-18T04:39:03.610Z,12.98
2019-03-18T04:41:30.179Z,9.80
2019-03-18T04:43:56.750Z,10.38
2019-03-18T04:46:23.334Z,8.40
2019-03-18T04:48:49.897Z,13.68
2019-03-18T04:51:16.471Z,13.95
2019-03-18T04:53:43.050Z,12.40
2019-03-18T04:56:09.620Z,7.97
2019-03-18T04:58:36.196Z,13.50
2019-03-18T05:01:02.771Z,11.50
2019-03-18T05:03:29.363Z,22.32
2019-03-18T05:05:55.936Z,12.13
2019-03-18T05:08:22.533Z,12.75
2019-03-18T05:10:49.095Z,10.72
2019-03-18T05:13:15.699Z,8.93
2019-03-18T05:15:42.270Z,10.20
2019-03-18T05:18:08.889Z,11.40
2019-03-18T05:20:35.484Z,11.78
2019-03-18T05:23:02.142Z,10.95
2019-03-18T05:25:28.767Z,13.22
2019-03-18T05:27:55.399Z,11.60
2019-03-18T05:30:22.064Z,12.28
2019-03-18T05:32:48.665Z,13.35
2019-03-18T05:35:15.248Z,8.28
2019-03-18T05:37:41.852Z,6.70
2019-03-18T05:40:08.423Z,1.95
2019-03-18T05:42:34.988Z,4.15
2019-03-18T05:45:01.556Z,4.70
2019-03-18T05:47:38.562Z,3.42
2019-03-18T05:49:56.426Z,5.10
2019-03-18T05:52:22.995Z,3.25
2019-03-18T05:54:49.568Z,4.95
2019-03-18T05:57:16.230Z,5.55
2019-03-18T05:59:42.807Z,3.83
2019-03-18T06:02:09.375Z,5.03
2019-03-18T06:04:35.942Z,3.72
2019-03-18T06:07:02.519Z,5.95
2019-03-18T06:09:29.108Z,4.40
2019-03-18T06:11:55.660Z,5.92
2019-03-18T06:14:22.334Z,3.25
2019-03-18T06:16:48.913Z,4.25
2019-03-18T06:19:15.480Z,4.47
2019-03-18T06:21:42.128Z,4.53
2019-03-18T06:24:08.709Z,8.85
2019-03-18T06:26:35.286Z,5.53
2019-03-18T06:29:01.869Z,7.12
2019-03-18T06:31:28.448Z,5.92
2019-03-18T06:33:55.020Z,5.67
2019-03-18T06:36:21.591Z,11.15
2019-03-18T06:38:48.210Z,7.10
2019-03-18T06:41:14.772Z,5.33
2019-03-18T06:43:41.383Z,6.40
2019-03-18T06:46:07.950Z,5.45
2019-03-18T06:48:34.567Z,6.67
2019-03-18T06:51:01.148Z,4.78
2019-03-18T06:53:27.752Z,6.65
2019-03-18T06:55:54.322Z,6.58
2019-03-18T06:58:20.925Z,9.23
2019-03-18T07:00:47.490Z,7.90
2019-03-18T07:03:14.101Z,8.80
2019-03-18T07:05:40.681Z,6.92
2019-03-18T07:08:07.255Z,6.78
2019-03-18T07:10:33.822Z,4.60
2019-03-18T07:13:00.516Z,5.22
2019-03-18T07:15:27.090Z,8.08
2019-03-18T07:17:53.664Z,6.90
2019-03-18T07:20:20.273Z,6.67
2019-03-18T07:22:46.888Z,6.28
2019-03-18T07:25:13.477Z,9.83
2019-03-18T07:27:40.056Z,4.55
2019-03-18T07:30:06.661Z,5.78
2019-03-18T07:32:33.233Z,7.08
2019-03-18T07:34:59.886Z,8.43
2019-03-18T07:37:26.487Z,11.40
2019-03-18T07:39:53.075Z,13.38
2019-03-18T07:42:19.656Z,16.55
2019-03-18T07:44:46.263Z,10.75
2019-03-18T07:47:12.841Z,10.40
2019-03-18T07:49:39.466Z,13.62
2019-03-18T07:52:06.048Z,5.58
2019-03-18T07:54:33.310Z,9.03
2019-03-18T07:57:00.087Z,11.73
2019-03-18T07:59:26.695Z,5.55
2019-03-18T08:01:53.270Z,4.70
2019-03-18T08:04:19.873Z,10.08
2019-03-18T08:06:46.527Z,13.20
2019-03-18T08:09:13.117Z,10.40
2019-03-18T08:11:39.692Z,10.03
2019-03-18T08:14:06.303Z,6.35
2019-03-18T08:16:32.965Z,5.53
2019-03-18T08:18:59.579Z,5.35
2019-03-18T08:21:27.246Z,7.12
2019-03-18T08:23:53.848Z,6.30
2019-03-18T08:26:20.418Z,9.80
2019-03-18T08:28:47.015Z,14.07
2019-03-18T08:31:13.584Z,6.25
2019-03-18T08:33:40.153Z,6.15
2019-03-18T08:36:06.731Z,7.62
2019-03-18T08:38:33.310Z,7.50
2019-03-18T08:40:59.885Z,9.45
2019-03-18T08:43:26.458Z,7.03
2019-03-18T08:45:53.038Z,7.80
2019-03-18T08:48:19.610Z,6.15
2019-03-18T08:50:46.194Z,5.83
2019-03-18T08:53:12.767Z,7.65
2019-03-18T08:55:39.347Z,8.13
2019-03-18T08:58:05.918Z,6.92
2019-03-18T09:00:32.486Z,6.05
2019-03-18T09:02:59.061Z,7.55
2019-03-18T09:05:25.641Z,13.55
2019-03-18T09:07:52.216Z,9.75
2019-03-18T09:10:18.794Z,11.45
2019-03-18T09:12:45.372Z,11.88
2019-03-18T09:15:11.944Z,15.18
2019-03-18T09:17:38.526Z,14.05
2019-03-18T09:20:05.122Z,13.72
2019-03-18T09:22:31.699Z,10.20
2019-03-18T09:24:58.308Z,13.15
2019-03-18T09:27:24.881Z,9.88
2019-03-18T09:29:51.497Z,6.03
2019-03-18T09:32:18.054Z,14.15
2019-03-18T09:34:44.649Z,7.30
2019-03-18T09:37:11.222Z,9.80
2019-03-18T09:39:37.821Z,4.67
2019-03-18T09:42:04.470Z,4.65
2019-03-18T09:44:31.085Z,4.80
2019-03-18T09:46:57.648Z,9.03
2019-03-18T09:49:24.257Z,7.30
2019-03-18T09:51:50.829Z,8.25
2019-03-18T09:54:17.434Z,8.33
2019-03-18T09:56:44.005Z,6.55
2019-03-18T09:59:10.600Z,6.55
2019-03-18T10:01:37.182Z,5.92
2019-03-18T10:04:03.765Z,7.83
2019-03-18T10:06:30.342Z,10.03
2019-03-18T10:08:56.915Z,6.08
2019-03-18T10:11:23.484Z,4.03
2019-03-18T10:13:50.067Z,5.55
2019-03-18T10:16:16.646Z,4.90
2019-03-18T10:18:43.221Z,5.20
2019-03-18T10:21:09.804Z,5.62
2019-03-18T10:23:36.387Z,6.45
2019-03-18T10:26:02.961Z,14.18
2019-03-18T10:28:29.587Z,3.80
2019-03-18T10:30:56.160Z,5.33
2019-03-18T10:33:22.748Z,10.98
2019-03-18T10:35:49.325Z,8.90
2019-03-18T10:38:15.908Z,9.65
2019-03-18T10:40:42.499Z,7.80
2019-03-18T10:43:09.077Z,6.00
2019-03-18T10:45:35.694Z,4.60
2019-03-18T10:48:02.269Z,18.23
2019-03-18T10:50:28.876Z,5.10
2019-03-18T10:52:55.466Z,7.40
2019-03-18T10:55:22.055Z,4.08
2019-03-18T10:57:48.625Z,6.45
2019-03-18T11:00:15.272Z,4.20
2019-03-18T11:02:44.694Z,7.37
2019-03-18T11:05:10.233Z,4.80
2019-03-18T11:07:36.914Z,3.52
2019-03-18T11:10:03.534Z,3.25
2019-03-18T11:12:30.101Z,3.20
2019-03-18T11:14:56.796Z,5.40
2019-03-18T11:17:23.378Z,3.20
2019-03-18T11:19:58.227Z,3.72
2019-03-18T11:22:18.253Z,4.55
2019-03-18T11:24:44.844Z,5.78
2019-03-18T11:27:11.410Z,6.70
2019-03-18T11:29:37.983Z,6.90
2019-03-18T11:32:04.555Z,3.77
2019-03-18T11:34:31.137Z,9.33
2019-03-18T11:36:57.728Z,8.15
2019-03-18T11:39:24.296Z,6.80
2019-03-18T11:41:50.866Z,6.70
2019-03-18T11:44:17.459Z,8.73
2019-03-18T11:46:44.070Z,7.55
2019-03-18T11:49:10.639Z,5.97
2019-03-18T11:51:37.218Z,5.95
2019-03-18T11:54:03.787Z,3.70
2019-03-18T11:56:30.363Z,4.95
2019-03-18T11:58:56.935Z,6.35
2019-03-18T12:01:23.551Z,4.87
2019-03-18T12:03:50.132Z,4.65
2019-03-18T12:06:16.724Z,7.35
2019-03-18T12:08:43.301Z,5.10
2019-03-18T12:11:09.966Z,5.42
2019-03-18T12:13:36.547Z,54.18
2019-03-18T12:16:03.169Z,41.90
2019-03-18T12:18:29.741Z,11.40
2019-03-18T12:20:56.347Z,7.80
2019-03-18T12:23:22.938Z,8.05
2019-03-18T12:25:49.548Z,4.72
2019-03-18T12:28:16.116Z,4.22
2019-03-18T12:30:42.725Z,7.28
2019-03-18T12:33:09.300Z,4.60
2019-03-18T12:35:35.892Z,6.65
2019-03-18T12:38:02.462Z,4.17
2019-03-18T12:40:29.032Z,7.65
2019-03-18T12:42:55.611Z,3.83
2019-03-18T12:45:22.319Z,8.03
2019-03-18T12:47:48.899Z,5.30
2019-03-18T12:50:15.464Z,5.62
2019-03-18T12:52:42.052Z,7.45
2019-03-18T12:55:08.619Z,8.28
2019-03-18T12:57:35.199Z,8.00
2019-03-18T13:00:01.774Z,6.53
2019-03-18T13:02:28.341Z,7.78
2019-03-18T13:04:54.918Z,5.83
2019-03-18T13:07:21.535Z,5.25
2019-03-18T13:09:48.114Z,5.75
2019-03-18T13:12:14.718Z,3.15
2019-03-18T13:14:41.292Z,5.83
2019-03-18T13:17:07.904Z,6.42
2019-03-18T13:19:34.540Z,5.62
2019-03-18T13:22:01.154Z,8.63
2019-03-18T13:24:27.787Z,8.35
2019-03-18T13:26:54.417Z,8.00
2019-03-18T13:29:21.002Z,11.45
2019-03-18T13:31:47.611Z,8.73
2019-03-18T13:34:14.186Z,6.28
2019-03-18T13:36:40.777Z,9.08
2019-03-18T13:39:07.362Z,8.73
2019-03-18T13:41:33.953Z,11.85
2019-03-18T13:44:00.530Z,9.60
2019-03-18T13:46:27.166Z,9.85
2019-03-18T13:48:53.724Z,11.45
2019-03-18T13:51:21.378Z,10.18
2019-03-18T13:53:48.117Z,10.15
2019-03-18T13:56:14.695Z,8.80
2019-03-18T13:58:41.354Z,10.25
2019-03-18T14:01:07.972Z,7.53
2019-03-18T14:03:34.540Z,6.22
2019-03-18T14:06:01.117Z,5.28
2019-03-18T14:08:27.683Z,5.15
2019-03-18T14:10:54.252Z,5.78
2019-03-18T14:13:20.842Z,6.70
2019-03-18T14:15:47.401Z,12.43
2019-03-18T14:18:13.991Z,12.82
2019-03-18T14:20:40.564Z,10.50
2019-03-18T14:23:07.211Z,10.10
2019-03-18T14:25:33.795Z,13.10
2019-03-18T14:28:00.401Z,13.93
2019-03-18T14:30:27.023Z,11.88
2019-03-18T14:32:53.603Z,11.83
2019-03-18T14:35:21.545Z,10.70
2019-03-18T14:37:48.642Z,15.95
2019-03-18T14:40:15.216Z,11.25
2019-03-18T14:42:41.809Z,12.90
2019-03-18T14:45:08.379Z,17.17
2019-03-18T14:47:35.020Z,15.25
2019-03-18T14:50:01.648Z,10.95
2019-03-18T14:52:28.313Z,12.98
2019-03-18T14:54:54.874Z,9.08
2019-03-18T14:57:21.495Z,11.95
2019-03-18T14:59:48.098Z,14.47
2019-03-18T15:02:14.759Z,10.70
2019-03-18T15:04:41.342Z,13.95
2019-03-18T15:07:07.968Z,11.83
2019-03-18T15:09:34.559Z,13.30
2019-03-18T15:12:01.162Z,11.25
2019-03-18T15:14:27.731Z,14.45
2019-03-18T15:16:54.347Z,16.73
2019-03-18T15:19:20.931Z,12.40
2019-03-18T15:21:57.997Z,14.28
2019-03-18T15:24:17.139Z,11.03
2019-03-18T15:26:44.123Z,11.05
2019-03-18T15:29:10.693Z,9.15
2019-03-18T15:31:37.297Z,9.13
2019-03-18T15:34:03.872Z,9.43
2019-03-18T15:36:30.461Z,11.08
2019-03-18T15:38:57.029Z,10.78
2019-03-18T15:41:23.605Z,13.45
2019-03-18T15:43:50.176Z,14.73
2019-03-18T15:46:16.750Z,12.15
2019-03-18T15:48:43.333Z,13.50
2019-03-18T15:51:09.926Z,12.68
2019-03-18T15:53:36.498Z,11.18
2019-03-18T15:56:03.074Z,11.03
2019-03-18T15:58:29.654Z,11.33
2019-03-18T16:00:56.229Z,10.60
2019-03-18T16:03:22.883Z,12.43
2019-03-18T16:05:49.470Z,11.83
2019-03-18T16:08:16.346Z,17.82
2019-03-18T16:10:42.949Z,12.05
2019-03-18T16:13:09.590Z,15.98
2019-03-18T16:15:36.174Z,12.30
2019-03-18T16:18:02.753Z,15.50
2019-03-18T16:20:29.434Z,19.42
2019-03-18T16:22:56.009Z,17.27
2019-03-18T16:25:22.581Z,19.37
2019-03-18T16:27:49.156Z,21.70
2019-03-18T16:30:15.740Z,22.75
2019-03-18T16:32:42.361Z,36.33
2019-03-18T16:35:08.932Z,31.02
2019-03-18T16:37:35.544Z,24.63
2019-03-18T16:40:02.118Z,30.62
2019-03-18T16:42:28.840Z,28.87
2019-03-18T16:44:55.413Z,23.50
2019-03-18T16:47:22.032Z,21.80
2019-03-18T16:49:48.624Z,22.67
2019-03-18T16:52:15.229Z,23.42
2019-03-18T16:54:41.814Z,19.75
2019-03-18T16:57:08.391Z,22.27
2019-03-18T16:59:34.971Z,22.65
2019-03-18T17:02:01.601Z,17.65
2019-03-18T17:04:28.211Z,22.48
2019-03-18T17:06:54.788Z,19.40
2019-03-18T17:09:21.366Z,19.17
2019-03-18T17:11:47.945Z,20.35
2019-03-18T17:14:14.526Z,19.77
2019-03-18T17:16:41.105Z,18.98
2019-03-18T17:19:07.693Z,20.82
2019-03-18T17:21:34.371Z,21.35
2019-03-18T17:24:00.943Z,25.10
2019-03-18T17:26:28.783Z,22.98
2019-03-18T17:28:55.357Z,27.82
2019-03-18T17:31:21.961Z,24.37
2019-03-18T17:33:48.538Z,25.35
2019-03-18T17:36:15.120Z,22.77
2019-03-18T17:38:41.712Z,24.55
2019-03-18T17:41:09.393Z,25.02
2019-03-18T17:43:36.147Z,39.78
2019-03-18T17:46:02.805Z,50.85
2019-03-18T17:48:29.380Z,36.70
2019-03-18T17:50:55.969Z,36.33
2019-03-18T17:53:22.536Z,32.25
2019-03-18T17:55:49.120Z,32.55
2019-03-18T17:58:15.696Z,32.10
2019-03-18T18:00:42.277Z,38.08
2019-03-18T18:03:08.855Z,25.52
2019-03-18T18:05:35.431Z,17.92
2019-03-18T18:08:02.005Z,21.33
2019-03-18T18:10:28.580Z,17.82
2019-03-18T18:12:55.172Z,16.17
2019-03-18T18:15:21.750Z,19.80
2019-03-18T18:17:48.320Z,16.73
2019-03-18T18:20:14.947Z,14.30
2019-03-18T18:22:41.526Z,15.40
2019-03-18T18:25:08.115Z,15.65
2019-03-18T18:27:34.703Z,14.10
2019-03-18T18:30:01.328Z,13.55
2019-03-18T18:32:27.896Z,14.55
2019-03-18T18:34:55.910Z,15.23
2019-03-18T18:37:22.490Z,16.97
2019-03-18T18:39:49.101Z,20.27
2019-03-18T18:42:15.712Z,17.10
2019-03-18T18:44:42.323Z,23.07
2019-03-18T18:47:08.893Z,21.00
2019-03-18T18:49:35.535Z,20.12
2019-03-18T18:52:02.114Z,15.95
2019-03-18T18:54:28.708Z,19.20
2019-03-18T18:56:55.288Z,20.20
2019-03-18T18:59:21.875Z,19.25
2019-03-18T19:01:48.464Z,18.80
2019-03-18T19:04:15.079Z,19.70
2019-03-18T19:06:41.655Z,20.77
2019-03-18T19:09:08.334Z,18.10
2019-03-18T19:11:34.974Z,16.57
2019-03-18T19:14:01.575Z,27.05
2019-03-18T19:16:28.147Z,20.95
2019-03-18T19:18:54.760Z,23.12
2019-03-18T19:21:21.376Z,24.30
2019-03-18T19:23:47.971Z,27.82
2019-03-18T19:26:14.545Z,31.27
2019-03-18T19:28:41.223Z,23.25
2019-03-18T19:31:07.798Z,26.35
2019-03-18T19:33:34.447Z,34.45
2019-03-18T19:36:01.025Z,31.35
2019-03-18T19:38:27.642Z,40.30
2019-03-18T19:40:54.215Z,40.80
2019-03-18T19:43:20.788Z,56.85
2019-03-18T19:45:47.479Z,50.98
2019-03-18T19:48:14.062Z,48.10
2019-03-18T19:50:40.640Z,59.75
2019-03-18T19:53:07.244Z,57.93
2019-03-18T19:55:33.809Z,67.75
2019-03-18T19:58:00.457Z,67.97
2019-03-18T20:00:27.084Z,61.25
2019-03-18T20:02:53.678Z,53.10
2019-03-18T20:05:20.273Z,51.20
2019-03-18T20:07:46.850Z,60.20
2019-03-18T20:10:13.476Z,48.52
2019-03-18T20:12:40.099Z,38.83
2019-03-18T20:15:06.714Z,39.27
2019-03-18T20:17:33.333Z,36.70
2019-03-18T20:20:00.190Z,33.90
2019-03-18T20:22:27.050Z,33.00
2019-03-18T20:24:53.637Z,39.25
2019-03-18T20:27:20.897Z,41.65
2019-03-18T20:29:47.530Z,44.38
2019-03-18T20:32:14.105Z,42.73
2019-03-18T20:34:40.743Z,36.08
2019-03-18T20:37:07.322Z,41.18
2019-03-18T20:39:33.961Z,49.35
2019-03-18T20:42:00.533Z,51.63
2019-03-18T20:44:27.131Z,56.63
2019-03-18T20:46:53.707Z,54.58
2019-03-18T20:49:20.327Z,47.48
2019-03-18T20:51:47.279Z,60.48
2019-03-18T20:54:13.850Z,61.40
2019-03-18T20:56:40.433Z,55.15
2019-03-18T20:59:07.006Z,51.60
2019-03-18T21:01:33.582Z,43.63
2019-03-18T21:04:00.160Z,51.15
2019-03-18T21:06:26.745Z,47.33
2019-03-18T21:08:53.332Z,45.65
2019-03-18T21:11:19.909Z,37.20
2019-03-18T21:13:56.760Z,46.02
2019-03-18T21:16:14.782Z,38.58
2019-03-18T21:18:43.903Z,41.70
2019-03-18T21:21:09.655Z,37.42
2019-03-18T21:23:36.271Z,41.55
2019-03-18T21:26:02.855Z,45.12
2019-03-18T21:28:40.498Z,41.58
2019-03-18T21:30:57.736Z,35.83
2019-03-18T21:33:24.314Z,40.60
2019-03-18T21:35:53.079Z,43.92
2019-03-18T21:38:19.463Z,37.70
2019-03-18T21:40:46.032Z,39.53
2019-03-18T21:43:12.606Z,36.85
2019-03-18T21:45:39.180Z,33.80
2019-03-18T21:48:05.756Z,37.63
2019-03-18T21:50:32.337Z,35.95
2019-03-18T21:52:58.914Z,43.68
2019-03-18T21:55:25.492Z,50.92
2019-03-18T21:57:52.060Z,47.65
2019-03-18T22:00:18.633Z,42.95
2019-03-18T22:02:45.214Z,57.35
2019-03-18T22:05:11.829Z,66.30
2019-03-18T22:07:38.393Z,48.40
2019-03-18T22:10:05.008Z,58.10
2019-03-18T22:12:31.680Z,51.98
2019-03-18T22:14:58.273Z,51.85
2019-03-18T22:17:24.890Z,50.70
2019-03-18T22:19:51.501Z,47.70
2019-03-18T22:22:18.079Z,43.25
2019-03-18T22:24:45.711Z,55.58
2019-03-18T22:27:12.507Z,41.60
2019-03-18T22:29:39.085Z,46.10
2019-03-18T22:32:05.664Z,55.17
2019-03-18T22:34:32.238Z,41.05
2019-03-18T22:36:58.875Z,39.30
2019-03-18T22:39:25.459Z,45.10
2019-03-18T22:41:52.039Z,41.33
2019-03-18T22:44:18.618Z,35.03
2019-03-18T22:46:45.214Z,38.73
2019-03-18T22:49:11.836Z,38.67
2019-03-18T22:51:38.409Z,36.95
2019-03-18T22:54:04.989Z,47.88
2019-03-18T22:56:31.576Z,44.45
2019-03-18T22:58:58.151Z,55.05
2019-03-18T23:01:24.851Z,43.05
2019-03-18T23:03:51.416Z,45.25
2019-03-18T23:06:18.031Z,45.65
2019-03-18T23:08:44.595Z,43.48
2019-03-18T23:11:11.189Z,37.15
2019-03-18T23:13:37.769Z,41.20
2019-03-18T23:16:04.362Z,40.48
2019-03-18T23:18:31.003Z,37.37
2019-03-18T23:20:57.611Z,38.10
2019-03-18T23:23:24.182Z,37.10
2019-03-18T23:25:50.857Z,40.50
2019-03-18T23:28:17.435Z,38.95
2019-03-18T23:30:44.026Z,34.90
2019-03-18T23:33:10.610Z,39.45
2019-03-18T23:35:37.216Z,29.93
2019-03-18T23:38:03.783Z,36.00
2019-03-18T23:40:30.377Z,30.60
2019-03-18T23:42:56.953Z,31.33
2019-03-18T23:45:23.550Z,32.40
2019-03-18T23:47:50.119Z,31.90
2019-03-18T23:50:16.742Z,32.47
2019-03-18T23:52:43.326Z,36.10
2019-03-18T23:55:18.174Z,28.17
2019-03-18T23:57:38.215Z,29.73
